Flight Track Log - Related Links

Times and Time Zones

All times are in EDT time to prevent confusion due to time zone crossing. See the AMF1965 flight status page for this flight to view local times or setup timezone preferences in your user account.

Time Position Orientation Groundspeed Altitude Reporting Facility
EDT Latitude Longitude Course Direction KTS MPH feet Rate Location/Type
Fri 08:14:14 PM 45.6142 -119.3058 260° West 168 193 10,400  Level Seattle Center
Fri 08:15:15 PM 45.6053 -119.3786 260° West 185 213 10,500 49 Climbing Seattle Center
Fri 08:16:16 PM 45.6014 -119.4531 266° West 188 216 10,500 49 Level Seattle Center
Fri 08:17:17 PM 45.6150 -119.5278 285° West 194 223 10,600 49 Climbing Seattle Center
Fri 08:18:18 PM 45.6222 -119.6039 278° West 195 224 10,600  Level Seattle Center
Fri 08:19:19 PM 45.6294 -119.6942 277° West 193 222 10,600  Level Seattle Center
Fri 08:20:20 PM 45.6369 -119.7714 278° West 196 226 10,600  Level Seattle Center
Fri 08:21:21 PM 45.6414 -119.8506 275° West 200 230 10,600  Level Seattle Center
Fri 08:22:22 PM 45.6450 -119.9286 274° West 199 229 10,600  Level Seattle Center
Fri 08:23:23 PM 45.6486 -120.0028 274° West 193 222 10,600  Level Seattle Center
Fri 08:24:24 PM 45.6542 -120.0772 276° West 191 220 10,600  Level Seattle Center
Fri 08:25:25 PM 45.6575 -120.1511 274° West 188 216 10,600  Level Seattle Center
Fri 08:26:26 PM 45.6586 -120.2264 271° West 189 217 10,600  Level Seattle Center
Fri 08:27:27 PM 45.6631 -120.3039 275° West 194 223 10,600 -49 Level Seattle Center
Fri 08:28:28 PM 45.6675 -120.3831 275° West 198 228 10,500 49 Descending Seattle Center
Fri 08:29:29 PM 45.6744 -120.4747 276° West 197 227 10,700 49 Climbing Seattle Center
Fri 08:30:30 PM 45.6914 -120.5478 288° West 199 229 10,600 -49 Descending Seattle Center
Fri 08:31:31 PM 45.6922 -120.6253 271° West 196 226 10,600 -49 Level Seattle Center
Fri 08:32:32 PM 45.6928 -120.7017 271° West 194 223 10,500 -246 Descending Seattle Center
Fri 08:33:33 PM 45.6975 -120.7814 275° West 197 227 10,100 -344 Descending Seattle Center
Fri 08:34:34 PM 45.7033 -120.8631 276° West 202 232 9,800 -295 Descending Seattle Center
Fri 08:35:35 PM 45.7064 -120.9428 273° West 203 234 9,500 -246 Descending Seattle Center
Fri 08:36:36 PM 45.7114 -121.0256 275° West 205 236 9,300 -295 Descending Seattle Center
Fri 08:37:37 PM 45.7169 -121.1075 276° West 207 238 8,900 -390 Descending Seattle Center
Fri 08:38:39 PM 45.7189 -121.1897 272° West 207 238 8,500 -195 Descending Seattle Center
Fri 08:39:40 PM 45.7197 -121.2700 271° West 204 235 8,500  Level Seattle Center
Fri 08:40:41 PM 45.7197 -121.3628 270° West 198 228 8,500 72 Level Seattle Center
Fri 08:41:03 PM 45.7203 -121.3928 272° West 194 223 8,600  Climbing Seattle Center
Fri 08:41:42 PM 45.7164 -121.4394 263° West 195 224 8,500 -120 Descending Seattle Center
Fri 08:42:43 PM 45.7142 -121.5142 268° West 190 219 8,400  Descending Seattle Center
Fri 08:43:44 PM 45.7119 -121.5911 268° West 193 222 8,500 91 Climbing Seattle Center
Fri 08:44:55 PM 45.7064 -121.6875 265° West 191 220 8,600 49 Climbing Seattle Center
Fri 08:45:46 PM 45.7047 -121.7425 268° West 194 223 8,600 -54 Level Seattle Center
Fri 08:46:47 PM 45.7044 -121.8183 270° West 192 221 8,500 -237 Descending Seattle Center
Fri 08:47:02 PM 45.7053 -121.8492 272° West 193 222 8,300 -492 Descending Seattle Center
Fri 08:47:48 PM 45.7050 -121.8969 270° West 196 226 8,000 -393 Descending Seattle Center
Fri 08:48:03 PM 45.7075 -121.9319 276° West 205 236 7,900 -295 Descending Seattle Center
Fri 08:48:49 PM 45.7108 -121.9753 276° West 203 234 7,700 -393 Descending Seattle Center
Fri 08:49:50 PM 45.7175 -122.0706 276° West 203 234 7,200 -443 Descending Seattle Center
Fri 08:50:51 PM 45.7236 -122.1481 276° West 199 229 6,800 -443 Descending Seattle Center
Fri 08:51:52 PM 45.7297 -122.2269 276° West 200 230 6,300 -639 Descending Seattle Center
Fri 08:52:53 PM 45.7150 -122.3050 255° West 230 265 5,500 -689 Descending Seattle Center
Fri 08:53:54 PM 45.6608 -122.3369 202° Southwest 216 249 4,900 -780 Descending Seattle Center
Fri 08:54:56 PM 45.6214 -122.4014 229° Southwest 197 227 3,900 -1,033 Descending Seattle Center
Fri 08:55:56 PM 45.5947 -122.4617 238° Southwest 169 194 2,800 -893 Descending Seattle Center
Fri 08:56:57 PM 45.5772 -122.5139 244° Southwest 169 194 2,100 -984 Descending Seattle Center
Fri 08:57:58 PM 45.5675 -122.5672 255° West 154 177 800 -1,279 Descending Seattle Center
Fri 08:59:00 PM 45.5833 -122.5833 259° West  Level FlightAware Approximate
Fri 09:06:00 PM 45.5887 -122.5969 259° West  Level Estimated
Fri 09:07:00 PM 45.5887 -122.5969 259° West  Level Estimated
Fri 09:08:00 PM 45.5887 -122.5969 259° West  Level Estimated
Fri 09:09:00 PM 45.5887 -122.5969 259° West  Level Estimated
Fri 09:10:00 PM 45.5887 -122.5969 259° West  Level Estimated
Fri 09:11:00 PM 45.5887 -122.5969 259° West  Level Estimated
Fri 09:12:00 PM 45.5887 -122.5969 259° West  Level Estimated
Fri 09:13:00 PM 45.5887 -122.5969 259° West  Level Estimated
Fri 09:14:00 PM 45.5887 -122.5969 259° West  Level Estimated
Fri 09:15:00 PM 45.5887 -122.5969 259° West  Level Estimated
Fri 09:16:00 PM 45.5887 -122.5969 259° West  Level Estimated

Login

Don't have an account? Register now (free) for customized features, flight alerts, and more!